createdAt,value
2019-02-16T00:00:30.804Z,2.6
2019-02-16T00:05:29.153Z,2.6
2019-02-16T00:10:27.492Z,2.6
2019-02-16T00:15:25.746Z,2.6
2019-02-16T00:20:24.176Z,2.5
2019-02-16T00:25:22.492Z,2.5
2019-02-16T00:30:20.704Z,2.5
2019-02-16T00:35:19.128Z,2.5
2019-02-16T00:40:16.935Z,2.5
2019-02-16T00:45:15.333Z,1.9
2019-02-16T00:50:13.319Z,2.5
2019-02-16T00:55:11.649Z,2.5
2019-02-16T01:00:09.977Z,2.4
2019-02-16T01:05:08.374Z,2.4
2019-02-16T01:10:06.934Z,2.4
2019-02-16T01:15:05.275Z,1.9
2019-02-16T01:20:03.474Z,2.4
2019-02-16T01:25:01.825Z,2.3
2019-02-16T01:30:00.365Z,2.3
2019-02-16T01:34:58.779Z,2.3
2019-02-16T01:39:56.922Z,1.8
2019-02-16T01:44:55.419Z,2
2019-02-16T01:49:53.573Z,2.3
2019-02-16T01:54:52.115Z,2.3
2019-02-16T01:59:50.593Z,2.3
2019-02-16T02:04:48.800Z,2.2
2019-02-16T02:09:47.231Z,2.2
2019-02-16T02:14:45.672Z,2.2
2019-02-16T02:19:44.127Z,1.7
2019-02-16T02:24:42.370Z,2
2019-02-16T02:29:40.808Z,2.2
2019-02-16T02:34:39.259Z,1.6
2019-02-16T02:39:37.137Z,2.2
2019-02-16T02:44:35.489Z,2.2
2019-02-16T02:49:33.914Z,2.1
2019-02-16T02:54:32.362Z,2.1
2019-02-16T02:59:30.855Z,1.7
2019-02-16T03:04:29.233Z,2.1
2019-02-16T03:09:27.563Z,2.1
2019-02-16T03:14:26.114Z,2
2019-02-16T03:19:24.564Z,2
2019-02-16T03:24:23.102Z,2
2019-02-16T03:29:21.565Z,2
2019-02-16T03:34:20.109Z,2
2019-02-16T03:39:18.467Z,2
2019-02-16T03:44:16.827Z,2
2019-02-16T03:49:15.269Z,2
2019-02-16T03:54:13.777Z,2
2019-02-16T03:59:12.181Z,1.3
2019-02-16T04:04:10.398Z,1.9
2019-02-16T04:09:08.176Z,1.4
2019-02-16T04:14:06.668Z,1.4
2019-02-16T04:19:05.051Z,1.9
2019-02-16T04:24:03.493Z,1.9
2019-02-16T04:29:01.701Z,1.4
2019-02-16T04:33:59.863Z,1.6
2019-02-16T04:38:58.320Z,1.2
2019-02-16T04:43:56.446Z,1.8
2019-02-16T04:48:54.961Z,1.8
2019-02-16T04:53:53.262Z,1.8
2019-02-16T04:58:51.732Z,1.8
2019-02-16T05:03:50.245Z,1.7
2019-02-16T05:08:48.635Z,1.7
2019-02-16T05:13:47.103Z,1.7
2019-02-16T05:18:45.506Z,1.7
2019-02-16T05:23:43.859Z,1.4
2019-02-16T05:28:42.406Z,1.6
2019-02-16T05:33:40.157Z,1.3
2019-02-16T05:38:38.752Z,1
2019-02-16T05:43:37.108Z,1
2019-02-16T05:48:35.468Z,1.6
2019-02-16T05:53:33.879Z,1
2019-02-16T05:58:32.172Z,1.4
2019-02-16T06:03:30.526Z,1.5
2019-02-16T06:08:28.840Z,0.8
2019-02-16T06:13:27.329Z,1.5
2019-02-16T06:18:25.758Z,1.5
2019-02-16T06:23:23.944Z,0.9
2019-02-16T06:28:22.629Z,1.4
2019-02-16T06:33:21.091Z,1.4
2019-02-16T06:38:19.552Z,1.3
2019-02-16T06:43:17.869Z,0.9
2019-02-16T06:48:16.293Z,0.8
2019-02-16T06:53:14.765Z,1.4
2019-02-16T06:58:13.107Z,1.4
2019-02-16T07:03:11.639Z,1.4
2019-02-16T07:08:09.975Z,1.3
2019-02-16T07:13:08.213Z,0.8
2019-02-16T07:18:06.773Z,1.3
2019-02-16T07:23:05.167Z,1.3
2019-02-16T07:28:03.590Z,1.3
2019-02-16T07:33:02.116Z,0.8
2019-02-16T07:38:00.485Z,1.3
2019-02-16T07:42:59.023Z,0.2
2019-02-16T07:47:57.358Z,0.7
2019-02-16T07:52:55.726Z,1.3
2019-02-16T07:57:53.993Z,1.3
2019-02-16T08:02:52.442Z,1.4
2019-02-16T08:07:50.873Z,0.8
2019-02-16T08:12:49.024Z,1.4
2019-02-16T08:17:47.608Z,1.4
2019-02-16T08:22:45.580Z,1.4
2019-02-16T08:27:43.967Z,0.7
2019-02-16T08:32:42.436Z,0.9
2019-02-16T08:37:40.943Z,1.2
2019-02-16T08:42:39.362Z,0.9
2019-02-16T08:47:37.971Z,1.5
2019-02-16T08:52:36.464Z,1.6
2019-02-16T08:57:34.864Z,1.3
2019-02-16T09:02:33.337Z,1.7
2019-02-16T09:07:31.951Z,1.7
2019-02-16T09:12:30.498Z,1.2
2019-02-16T09:17:28.850Z,1.8
2019-02-16T09:22:27.400Z,1.8
2019-02-16T09:27:26.061Z,1.9
2019-02-16T09:32:24.517Z,1.9
2019-02-16T09:37:23.093Z,2
2019-02-16T09:42:21.473Z,2
2019-02-16T09:47:19.972Z,1.5
2019-02-16T09:52:18.379Z,2.1
2019-02-16T09:57:16.743Z,2.2
2019-02-16T10:02:15.326Z,1.8
2019-02-16T10:07:13.970Z,2.1
2019-02-16T10:12:12.466Z,2.3
2019-02-16T10:17:10.898Z,2.4
2019-02-16T10:22:09.395Z,2.4
2019-02-16T10:27:07.783Z,2.5
2019-02-16T10:32:06.227Z,2.5
2019-02-16T10:37:04.690Z,2.6
2019-02-16T10:42:03.537Z,2.4
2019-02-16T10:47:02.007Z,2.7
2019-02-16T10:52:00.095Z,2.8
2019-02-16T10:56:58.500Z,2.3
2019-02-16T11:01:57.139Z,2.3
2019-02-16T11:06:55.747Z,3
2019-02-16T11:11:54.188Z,2.4
2019-02-16T11:16:53.626Z,3.1
2019-02-16T11:21:52.158Z,3.2
2019-02-16T11:26:50.981Z,3.2
2019-02-16T11:31:49.433Z,3.3
2019-02-16T11:36:47.877Z,3.4
2019-02-16T11:41:46.459Z,3.5
2019-02-16T11:46:44.964Z,3.5
2019-02-16T11:51:43.517Z,3.3
2019-02-16T11:56:41.966Z,3.7
2019-02-16T12:01:40.752Z,3.7
2019-02-16T12:06:39.400Z,3.8
2019-02-16T12:11:38.076Z,3.3
2019-02-16T12:16:36.677Z,4
2019-02-16T12:21:34.937Z,4.1
2019-02-16T12:26:33.465Z,4.1
2019-02-16T12:31:31.679Z,4.2
2019-02-16T12:36:29.869Z,4.3
2019-02-16T12:41:28.544Z,4.4
2019-02-16T12:46:27.116Z,4.4
2019-02-16T12:51:25.698Z,4.5
2019-02-16T12:56:24.248Z,4.6
2019-02-16T13:01:23.140Z,4.6
2019-02-16T13:06:22.140Z,5.7
2019-02-16T13:11:21.133Z,6.2
2019-02-16T13:16:20.111Z,5.7
2019-02-16T13:21:18.989Z,7.2
2019-02-16T13:26:17.819Z,7.7
2019-02-16T13:31:16.734Z,8.1
2019-02-16T13:36:15.573Z,8.5
2019-02-16T13:41:14.457Z,9
2019-02-16T13:46:13.431Z,9.4
2019-02-16T13:51:12.329Z,9.8
2019-02-16T13:56:11.353Z,10.2
2019-02-16T14:01:09.758Z,10.6
2019-02-16T14:06:08.692Z,10.9
2019-02-16T14:11:07.547Z,11.3
2019-02-16T14:16:06.339Z,11.7
2019-02-16T14:21:05.245Z,12.1
2019-02-16T14:26:04.131Z,12
2019-02-16T14:31:03.136Z,12.9
2019-02-16T14:36:01.945Z,12.8
2019-02-16T14:41:01.041Z,13.6
2019-02-16T14:45:59.926Z,13.4
2019-02-16T14:50:58.409Z,13.4
2019-02-16T14:55:57.567Z,13.4
2019-02-16T15:00:57.032Z,13.8
2019-02-16T15:05:55.681Z,13.4
2019-02-16T15:10:54.470Z,14
2019-02-16T15:15:53.233Z,13.6
2019-02-16T15:20:52.780Z,14.1
2019-02-16T15:26:00.386Z,13.8
2019-02-16T15:30:58.664Z,14.6
2019-02-16T15:35:57.432Z,15.2
2019-02-16T15:40:56.552Z,15.3
2019-02-16T15:45:55.716Z,16.4
2019-02-16T15:50:54.854Z,17
2019-02-16T15:55:54.928Z,17.5
2019-02-16T16:00:54.974Z,18.1
2019-02-16T16:05:54.137Z,18.6
2019-02-16T16:10:53.349Z,19.1
2019-02-16T16:15:52.491Z,18.9
2019-02-16T16:20:51.546Z,20
2019-02-16T16:25:50.497Z,20.4
2019-02-16T16:30:49.634Z,20.9
2019-02-16T16:35:48.699Z,21
2019-02-16T16:40:48.283Z,21.9
2019-02-16T16:45:47.282Z,22.3
2019-02-16T16:50:45.766Z,22.3
2019-02-16T16:55:44.944Z,22.6
2019-02-16T17:00:43.943Z,23.4
2019-02-16T17:05:42.918Z,23.2
2019-02-16T17:10:41.936Z,23.4
2019-02-16T17:15:40.753Z,23.6
2019-02-16T17:20:39.256Z,24.2
2019-02-16T17:25:37.998Z,24.1
2019-02-16T17:30:36.919Z,24.3
2019-02-16T17:35:35.933Z,24.6
2019-02-16T17:40:36.155Z,25.3
2019-02-16T17:45:36.177Z,25.2
2019-02-16T17:50:36.046Z,25.4
2019-02-16T17:55:35.175Z,25.5
2019-02-16T18:00:34.176Z,25.8
2019-02-16T18:05:33.008Z,25.9
2019-02-16T18:10:32.209Z,26.5
2019-02-16T18:15:32.211Z,26.2
2019-02-16T18:20:30.709Z,26.3
2019-02-16T18:25:29.630Z,26.8
2019-02-16T18:30:28.549Z,26.9
2019-02-16T18:35:27.894Z,26.8
2019-02-16T18:40:26.742Z,27.1
2019-02-16T18:45:25.626Z,27.1
2019-02-16T18:50:24.478Z,27.2
2019-02-16T18:55:23.175Z,27.2
2019-02-16T19:00:22.090Z,27.3
2019-02-16T19:05:20.705Z,27.3
2019-02-16T19:10:19.642Z,27.4
2019-02-16T19:15:18.781Z,27.4
2019-02-16T19:20:17.666Z,27.4
2019-02-16T19:25:16.578Z,27.4
2019-02-16T19:30:15.468Z,27.4
2019-02-16T19:35:14.433Z,27.4
2019-02-16T19:40:13.059Z,26.6
2019-02-16T19:45:12.059Z,27.4
2019-02-16T19:50:11.305Z,26.9
2019-02-16T19:55:10.514Z,27.3
2019-02-16T20:00:09.679Z,27.1
2019-02-16T20:05:08.953Z,26.6
2019-02-16T20:10:08.435Z,27.2
2019-02-16T20:15:08.028Z,26.8
2019-02-16T20:20:07.055Z,27.2
2019-02-16T20:25:06.187Z,27.1
2019-02-16T20:30:05.656Z,27.1
2019-02-16T20:35:05.082Z,26.7
2019-02-16T20:40:04.115Z,26.6
2019-02-16T20:45:03.146Z,26.7
2019-02-16T20:50:02.475Z,26.9
2019-02-16T20:55:01.414Z,26.4
2019-02-16T21:00:01.014Z,26.7
2019-02-16T21:05:00.793Z,26.3
2019-02-16T21:09:59.899Z,26.2
2019-02-16T21:14:58.911Z,26.1
2019-02-16T21:19:57.878Z,26
2019-02-16T21:24:56.856Z,26.3
2019-02-16T21:29:55.383Z,25.7
2019-02-16T21:34:54.116Z,25.8
2019-02-16T21:39:52.891Z,25.7
2019-02-16T21:44:51.533Z,25.5
2019-02-16T21:49:50.032Z,25.5
2019-02-16T21:54:48.691Z,25.4
2019-02-16T21:59:47.366Z,25.3
2019-02-16T22:04:45.915Z,25.2
2019-02-16T22:09:45.234Z,25.1
2019-02-16T22:14:43.450Z,25
2019-02-16T22:19:42.271Z,25.3
2019-02-16T22:24:41.074Z,25.1
2019-02-16T22:29:39.800Z,24.7
2019-02-16T22:34:38.505Z,24.5
2019-02-16T22:39:37.096Z,24.4
2019-02-16T22:44:35.955Z,24.3
2019-02-16T22:49:34.804Z,24.6
2019-02-16T22:54:33.540Z,24
2019-02-16T22:59:32.246Z,23.7
2019-02-16T23:04:31.048Z,23.8
2019-02-16T23:09:29.610Z,23.7
2019-02-16T23:14:28.092Z,23.5
2019-02-16T23:19:26.545Z,23.4
2019-02-16T23:24:25.041Z,23.3
2019-02-16T23:29:23.652Z,23.6
2019-02-16T23:34:22.194Z,23.1
2019-02-16T23:39:20.821Z,23.4
2019-02-16T23:44:19.433Z,23.3
2019-02-16T23:49:18.151Z,22.8
2019-02-16T23:54:16.878Z,22.6
2019-02-16T23:59:15.534Z,22.7
